Atkins, Iowa
Current Conditions -  °F | °C
As of 2:52 AM on Wednesday 22 Oct 2014 (Local Time) from KCID Reporting Station
Clear Clear  
Wind Chill:   Ceiling: Unl
Heat Index:   Visibility: 10mi
Dew Point:   Wind: 7mph
Humidity: 93%   Direction: 120°ESE
Pressure: 30.26"   Gusts: NA
Location:  42°N, 91.86°W
Report Text: KCID 220752Z AUTO 12006KT 10SM CLR 03/02 A3026 RMK AO2 SLP248 T00330022
Loading
Personal Weather Stations






























Interactive Weather Map
Tropical Storm Tracking
New forecast layout! Learn more

10-Day Weather Forecast

Advertisements
Track Severe Weather on mobile